sensor_id;sensor_type;location;lat;lon;timestamp;pressure;altitude;pressure_sealevel;temperature;humidity
61119;BME280;51448;51.660;5.824;2023-09-18T00:01:44;100518.00;;;19.08;100.00
61119;BME280;51448;51.660;5.824;2023-09-18T00:04:12;100517.16;;;19.08;100.00
61119;BME280;51448;51.660;5.824;2023-09-18T00:06:39;100510.84;;;19.09;100.00
61119;BME280;51448;51.660;5.824;2023-09-18T00:09:07;100493.91;;;19.10;100.00
61119;BME280;51448;51.660;5.824;2023-09-18T00:11:39;100496.56;;;19.10;100.00
61119;BME280;51448;51.660;5.824;2023-09-18T00:14:08;100486.84;;;19.09;100.00
61119;BME280;51448;51.660;5.824;2023-09-18T00:16:37;100478.88;;;19.09;100.00
61119;BME280;51448;51.660;5.824;2023-09-18T00:19:24;100490.50;;;19.08;100.00
61119;BME280;51448;51.660;5.824;2023-09-18T00:21:52;100484.19;;;19.09;100.00
61119;BME280;51448;51.660;5.824;2023-09-18T00:24:20;100477.16;;;19.08;100.00
61119;BME280;51448;51.660;5.824;2023-09-18T00:26:48;100479.84;;;19.08;100.00
61119;BME280;51448;51.660;5.824;2023-09-18T00:29:15;100476.31;;;19.07;100.00
61119;BME280;51448;51.660;5.824;2023-09-18T00:31:43;100460.44;;;19.06;100.00
61119;BME280;51448;51.660;5.824;2023-09-18T00:34:11;100472.03;;;19.05;100.00
61119;BME280;51448;51.660;5.824;2023-09-18T00:36:38;100459.59;;;19.05;100.00
61119;BME280;51448;51.660;5.824;2023-09-18T00:39:06;100445.38;;;19.05;100.00
61119;BME280;51448;51.660;5.824;2023-09-18T00:41:34;100446.38;;;19.04;100.00
61119;BME280;51448;51.660;5.824;2023-09-18T00:44:01;100448.19;;;19.03;100.00
61119;BME280;51448;51.660;5.824;2023-09-18T00:46:31;100433.03;;;19.04;100.00
61119;BME280;51448;51.660;5.824;2023-09-18T00:48:59;100440.19;;;19.03;100.00
61119;BME280;51448;51.660;5.824;2023-09-18T00:51:26;100430.38;;;19.04;100.00
61119;BME280;51448;51.660;5.824;2023-09-18T00:53:54;100417.88;;;19.04;100.00
61119;BME280;51448;51.660;5.824;2023-09-18T00:56:22;100418.72;;;19.05;100.00
61119;BME280;51448;51.660;5.824;2023-09-18T00:58:50;100412.47;;;19.06;100.00
61119;BME280;51448;51.660;5.824;2023-09-18T01:01:20;100414.16;;;19.07;100.00
61119;BME280;51448;51.660;5.824;2023-09-18T01:03:51;100401.69;;;19.07;100.00
61119;BME280;51448;51.660;5.824;2023-09-18T01:06:20;100400.72;;;19.08;100.00
61119;BME280;51448;51.660;5.824;2023-09-18T01:08:48;100397.97;;;19.10;100.00
61119;BME280;51448;51.660;5.824;2023-09-18T01:14:17;100374.59;;;19.14;100.00
61119;BME280;51448;51.660;5.824;2023-09-18T01:16:53;100375.47;;;19.14;100.00
61119;BME280;51448;51.660;5.824;2023-09-18T01:19:50;100368.19;;;19.16;100.00
61119;BME280;51448;51.660;5.824;2023-09-18T01:22:19;100358.47;;;19.15;100.00
61119;BME280;51448;51.660;5.824;2023-09-18T01:24:50;100349.44;;;19.18;100.00
61119;BME280;51448;51.660;5.824;2023-09-18T01:27:18;100356.56;;;19.17;100.00
61119;BME280;51448;51.660;5.824;2023-09-18T01:29:46;100353.69;;;19.20;100.00
61119;BME280;51448;51.660;5.824;2023-09-18T01:32:15;100356.25;;;19.22;100.00
61119;BME280;51448;51.660;5.824;2023-09-18T01:34:46;100355.28;;;19.23;100.00
61119;BME280;51448;51.660;5.824;2023-09-18T01:37:17;100356.00;;;19.25;100.00
61119;BME280;51448;51.660;5.824;2023-09-18T01:39:49;100349.84;;;19.24;100.00
61119;BME280;51448;51.660;5.824;2023-09-18T01:42:18;100350.59;;;19.26;100.00
61119;BME280;51448;51.660;5.824;2023-09-18T01:44:47;100344.28;;;19.27;100.00
61119;BME280;51448;51.660;5.824;2023-09-18T01:47:17;100343.22;;;19.30;100.00
61119;BME280;51448;51.660;5.824;2023-09-18T01:49:47;100334.13;;;19.33;100.00
61119;BME280;51448;51.660;5.824;2023-09-18T01:52:15;100338.28;;;19.37;100.00
61119;BME280;51448;51.660;5.824;2023-09-18T01:54:43;100340.72;;;19.40;100.00
61119;BME280;51448;51.660;5.824;2023-09-18T01:57:11;100328.88;;;19.44;100.00
61119;BME280;51448;51.660;5.824;2023-09-18T01:59:39;100328.66;;;19.47;100.00
61119;BME280;51448;51.660;5.824;2023-09-18T02:02:09;100324.91;;;19.49;100.00
61119;BME280;51448;51.660;5.824;2023-09-18T02:04:41;100320.31;;;19.52;100.00
61119;BME280;51448;51.660;5.824;2023-09-18T02:07:29;100328.19;;;19.53;100.00
61119;BME280;51448;51.660;5.824;2023-09-18T02:09:57;100324.44;;;19.56;100.00
61119;BME280;51448;51.660;5.824;2023-09-18T02:12:25;100329.69;;;19.57;100.00
61119;BME280;51448;51.660;5.824;2023-09-18T02:14:57;100330.41;;;19.59;100.00
61119;BME280;51448;51.660;5.824;2023-09-18T02:17:26;100328.50;;;19.61;100.00
61119;BME280;51448;51.660;5.824;2023-09-18T02:19:53;100320.25;;;19.64;100.00
61119;BME280;51448;51.660;5.824;2023-09-18T02:22:21;100312.97;;;19.66;100.00
61119;BME280;51448;51.660;5.824;2023-09-18T02:24:48;100318.94;;;19.70;100.00
61119;BME280;51448;51.660;5.824;2023-09-18T02:27:16;100300.28;;;19.70;100.00
61119;BME280;51448;51.660;5.824;2023-09-18T02:29:45;100303.59;;;19.74;100.00
61119;BME280;51448;51.660;5.824;2023-09-18T02:32:13;100294.63;;;19.75;100.00
61119;BME280;51448;51.660;5.824;2023-09-18T02:34:41;100292.69;;;19.77;100.00
61119;BME280;51448;51.660;5.824;2023-09-18T02:37:11;100283.72;;;19.78;100.00
61119;BME280;51448;51.660;5.824;2023-09-18T02:39:39;100273.91;;;19.78;100.00
61119;BME280;51448;51.660;5.824;2023-09-18T02:42:06;100266.72;;;19.79;100.00
61119;BME280;51448;51.660;5.824;2023-09-18T02:44:34;100256.06;;;19.79;100.00
61119;BME280;51448;51.660;5.824;2023-09-18T02:47:02;100246.38;;;19.78;100.00
61119;BME280;51448;51.660;5.824;2023-09-18T02:49:29;100234.84;;;19.77;100.00
61119;BME280;51448;51.660;5.824;2023-09-18T02:51:57;100232.19;;;19.77;100.00
61119;BME280;51448;51.660;5.824;2023-09-18T02:54:26;100223.31;;;19.77;100.00
61119;BME280;51448;51.660;5.824;2023-09-18T02:56:54;100217.97;;;19.77;100.00
61119;BME280;51448;51.660;5.824;2023-09-18T02:59:22;100210.94;;;19.76;100.00
61119;BME280;51448;51.660;5.824;2023-09-18T03:01:49;100204.63;;;19.77;100.00
61119;BME280;51448;51.660;5.824;2023-09-18T03:04:17;100208.28;;;19.76;100.00
61119;BME280;51448;51.660;5.824;2023-09-18T03:06:45;100203.91;;;19.75;100.00
61119;BME280;51448;51.660;5.824;2023-09-18T03:09:13;100194.09;;;19.75;100.00
61119;BME280;51448;51.660;5.824;2023-09-18T03:11:41;100178.09;;;19.75;100.00
61119;BME280;51448;51.660;5.824;2023-09-18T03:14:09;100179.78;;;19.76;100.00
61119;BME280;51448;51.660;5.824;2023-09-18T03:16:36;100185.13;;;19.76;100.00
61119;BME280;51448;51.660;5.824;2023-09-18T03:19:04;100189.63;;;19.76;100.00
61119;BME280;51448;51.660;5.824;2023-09-18T03:21:33;100198.56;;;19.75;100.00
61119;BME280;51448;51.660;5.824;2023-09-18T03:24:03;100206.72;;;19.73;100.00
61119;BME280;51448;51.660;5.824;2023-09-18T03:26:31;100202.44;;;19.70;100.00
61119;BME280;51448;51.660;5.824;2023-09-18T03:28:59;100214.06;;;19.69;100.00
61119;BME280;51448;51.660;5.824;2023-09-18T03:31:27;100205.22;;;19.69;100.00
61119;BME280;51448;51.660;5.824;2023-09-18T03:33:57;100221.22;;;19.69;100.00
61119;BME280;51448;51.660;5.824;2023-09-18T03:36:27;100225.69;;;19.68;100.00
61119;BME280;51448;51.660;5.824;2023-09-18T03:38:54;100231.00;;;19.68;100.00
61119;BME280;51448;51.660;5.824;2023-09-18T03:41:22;100215.78;;;19.70;100.00
61119;BME280;51448;51.660;5.824;2023-09-18T03:43:50;100214.72;;;19.73;100.00
61119;BME280;51448;51.660;5.824;2023-09-18T03:46:18;100208.41;;;19.74;100.00
61119;BME280;51448;51.660;5.824;2023-09-18T03:48:49;100217.25;;;19.75;100.00
61119;BME280;51448;51.660;5.824;2023-09-18T03:51:18;100208.41;;;19.74;100.00
61119;BME280;51448;51.660;5.824;2023-09-18T03:53:46;100219.91;;;19.75;100.00
61119;BME280;51448;51.660;5.824;2023-09-18T03:56:15;100208.28;;;19.76;100.00
61119;BME280;51448;51.660;5.824;2023-09-18T03:58:43;100203.78;;;19.76;100.00
61119;BME280;51448;51.660;5.824;2023-09-18T04:01:13;100194.09;;;19.75;100.00
61119;BME280;51448;51.660;5.824;2023-09-18T04:03:41;100185.97;;;19.77;100.00
61119;BME280;51448;51.660;5.824;2023-09-18T04:06:09;100197.50;;;19.77;100.00
61119;BME280;51448;51.660;5.824;2023-09-18T04:08:36;100203.69;;;19.78;100.00
61119;BME280;51448;51.660;5.824;2023-09-18T04:11:07;100207.09;;;19.80;100.00
61119;BME280;51448;51.660;5.824;2023-09-18T04:13:37;100200.66;;;19.82;100.00
61119;BME280;51448;51.660;5.824;2023-09-18T04:16:05;100190.72;;;19.84;100.00
61119;BME280;51448;51.660;5.824;2023-09-18T04:18:32;100176.28;;;19.87;100.00
61119;BME280;51448;51.660;5.824;2023-09-18T04:21:00;100163.66;;;19.89;100.00
61119;BME280;51448;51.660;5.824;2023-09-18T04:23:28;100151.94;;;19.92;100.00
61119;BME280;51448;51.660;5.824;2023-09-18T04:25:56;100158.00;;;19.94;100.00
61119;BME280;51448;51.660;5.824;2023-09-18T04:28:26;100166.72;;;19.96;100.00
61119;BME280;51448;51.660;5.824;2023-09-18T04:30:55;100177.25;;;19.97;100.00
61119;BME280;51448;51.660;5.824;2023-09-18T04:33:24;100179.72;;;20.00;100.00
61119;BME280;51448;51.660;5.824;2023-09-18T04:35:53;100188.56;;;20.01;100.00
61119;BME280;51448;51.660;5.824;2023-09-18T04:38:21;100192.78;;;20.03;100.00
61119;BME280;51448;51.660;5.824;2023-09-18T04:40:48;100186.41;;;20.06;100.00
61119;BME280;51448;51.660;5.824;2023-09-18T04:43:16;100179.22;;;20.06;100.00
61119;BME280;51448;51.660;5.824;2023-09-18T04:45:44;100164.78;;;20.09;100.00
61119;BME280;51448;51.660;5.824;2023-09-18T04:48:14;100146.94;;;20.09;100.00
61119;BME280;51448;51.660;5.824;2023-09-18T04:50:43;100149.59;;;20.09;100.00
61119;BME280;51448;51.660;5.824;2023-09-18T04:53:12;100123.66;;;20.12;100.00
61119;BME280;51448;51.660;5.824;2023-09-18T04:55:41;100120.97;;;20.12;100.00
61119;BME280;51448;51.660;5.824;2023-09-18T04:58:08;100118.31;;;20.12;100.00
61119;BME280;51448;51.660;5.824;2023-09-18T05:00:37;100118.31;;;20.12;100.00
61119;BME280;51448;51.660;5.824;2023-09-18T05:03:04;100125.47;;;20.11;100.00
61119;BME280;51448;51.660;5.824;2023-09-18T05:05:32;100112.13;;;20.11;100.00
61119;BME280;51448;51.660;5.824;2023-09-18T05:08:06;100105.09;;;20.10;100.00
61119;BME280;51448;51.660;5.824;2023-09-18T05:10:35;100106.91;;;20.09;100.00
61119;BME280;51448;51.660;5.824;2023-09-18T05:13:03;100106.91;;;20.09;100.00
61119;BME280;51448;51.660;5.824;2023-09-18T05:15:31;100111.50;;;20.07;100.00
61119;BME280;51448;51.660;5.824;2023-09-18T05:18:00;100107.03;;;20.08;100.00
61119;BME280;51448;51.660;5.824;2023-09-18T05:20:28;100099.88;;;20.08;100.00
61119;BME280;51448;51.660;5.824;2023-09-18T05:22:58;100110.56;;;20.08;100.00
61119;BME280;51448;51.660;5.824;2023-09-18T05:25:28;100110.56;;;20.08;100.00
61119;BME280;51448;51.660;5.824;2023-09-18T05:28:00;100117.72;;;20.08;100.00
61119;BME280;51448;51.660;5.824;2023-09-18T05:30:30;100125.72;;;20.08;100.00
61119;BME280;51448;51.660;5.824;2023-09-18T05:33:02;100123.91;;;20.08;100.00
61119;BME280;51448;51.660;5.824;2023-09-18T05:35:35;100136.41;;;20.08;100.00
61119;BME280;51448;51.660;5.824;2023-09-18T05:38:04;100151.56;;;20.07;100.00
61119;BME280;51448;51.660;5.824;2023-09-18T05:40:32;100157.88;;;20.06;100.00
61119;BME280;51448;51.660;5.824;2023-09-18T05:43:00;100155.22;;;20.06;100.00
61119;BME280;51448;51.660;5.824;2023-09-18T05:45:28;100157.03;;;20.06;100.00
61119;BME280;51448;51.660;5.824;2023-09-18T05:47:56;100157.88;;;20.06;100.00
61119;BME280;51448;51.660;5.824;2023-09-18T05:50:32;100166.00;;;20.05;100.00
61119;BME280;51448;51.660;5.824;2023-09-18T05:53:02;100189.19;;;20.04;100.00
61119;BME280;51448;51.660;5.824;2023-09-18T05:55:33;100184.78;;;20.03;100.00
61119;BME280;51448;51.660;5.824;2023-09-18T05:58:11;100183.00;;;20.04;100.00
61119;BME280;51448;51.660;5.824;2023-09-18T06:00:38;100194.50;;;20.04;100.00
61119;BME280;51448;51.660;5.824;2023-09-18T06:03:06;100190.84;;;20.05;100.00
61119;BME280;51448;51.660;5.824;2023-09-18T06:05:34;100185.53;;;20.05;100.00
61119;BME280;51448;51.660;5.824;2023-09-18T06:08:03;100192.69;;;20.05;100.00
61119;BME280;51448;51.660;5.824;2023-09-18T06:10:30;100191.72;;;20.06;100.00
61119;BME280;51448;51.660;5.824;2023-09-18T06:12:58;100197.06;;;20.06;100.00
61119;BME280;51448;51.660;5.824;2023-09-18T06:15:32;100197.06;;;20.06;100.00
61119;BME280;51448;51.660;5.824;2023-09-18T06:17:59;100204.09;;;20.07;100.00
61119;BME280;51448;51.660;5.824;2023-09-18T06:20:27;100221.81;;;20.08;100.00
61119;BME280;51448;51.660;5.824;2023-09-18T06:22:55;100220.94;;;20.07;100.00
61119;BME280;51448;51.660;5.824;2023-09-18T06:25:22;100214.78;;;20.07;100.00
61119;BME280;51448;51.660;5.824;2023-09-18T06:27:50;100210.41;;;20.06;100.00
61119;BME280;51448;51.660;5.824;2023-09-18T06:30:18;100216.81;;;20.03;100.00
61119;BME280;51448;51.660;5.824;2023-09-18T06:32:45;100220.47;;;20.02;100.00
61119;BME280;51448;51.660;5.824;2023-09-18T06:35:13;100224.09;;;20.01;100.00
61119;BME280;51448;51.660;5.824;2023-09-18T06:37:41;100232.25;;;20.00;100.00
61119;BME280;51448;51.660;5.824;2023-09-18T06:40:09;100233.09;;;20.00;100.00
61119;BME280;51448;51.660;5.824;2023-09-18T06:42:36;100222.41;;;20.00;100.00
61119;BME280;51448;51.660;5.824;2023-09-18T06:45:06;100215.13;;;20.02;100.00
61119;BME280;51448;51.660;5.824;2023-09-18T06:47:34;100217.69;;;20.04;100.00
61119;BME280;51448;51.660;5.824;2023-09-18T06:50:02;100232.72;;;20.05;100.00
61119;BME280;51448;51.660;5.824;2023-09-18T06:52:31;100236.22;;;20.05;100.00
61119;BME280;51448;51.660;5.824;2023-09-18T06:54:59;100236.97;;;20.07;100.00
61119;BME280;51448;51.660;5.824;2023-09-18T06:57:27;100247.53;;;20.09;100.00
61119;BME280;51448;51.660;5.824;2023-09-18T06:59:54;100251.03;;;20.09;100.00
61119;BME280;51448;51.660;5.824;2023-09-18T07:02:22;100251.03;;;20.09;100.00
61119;BME280;51448;51.660;5.824;2023-09-18T07:04:50;100252.75;;;20.10;100.00
61119;BME280;51448;51.660;5.824;2023-09-18T07:07:17;100245.72;;;20.09;100.00
61119;BME280;51448;51.660;5.824;2023-09-18T07:09:52;100255.31;;;20.12;100.00
61119;BME280;51448;51.660;5.824;2023-09-18T07:12:31;100249.72;;;20.15;100.00
61119;BME280;51448;51.660;5.824;2023-09-18T07:15:01;100247.69;;;20.19;100.00
61119;BME280;51448;51.660;5.824;2023-09-18T07:17:30;100241.34;;;20.20;100.00
61119;BME280;51448;51.660;5.824;2023-09-18T07:20:05;100251.91;;;20.21;100.00
61119;BME280;51448;51.660;5.824;2023-09-18T07:22:51;100259.09;;;20.21;100.00
61119;BME280;51448;51.660;5.824;2023-09-18T07:25:19;100235.91;;;20.21;100.00
61119;BME280;51448;51.660;5.824;2023-09-18T07:27:46;100241.13;;;20.23;100.00
61119;BME280;51448;51.660;5.824;2023-09-18T07:30:14;100235.78;;;20.23;100.00
61119;BME280;51448;51.660;5.824;2023-09-18T07:32:44;100249.16;;;20.23;100.00
61119;BME280;51448;51.660;5.824;2023-09-18T07:35:12;100258.84;;;20.24;100.00
61119;BME280;51448;51.660;5.824;2023-09-18T07:37:43;100262.50;;;20.23;100.00
61119;BME280;51448;51.660;5.824;2023-09-18T07:40:21;100258.00;;;20.23;100.00
61119;BME280;51448;51.660;5.824;2023-09-18T07:43:32;100266.25;;;20.20;100.00
61119;BME280;51448;51.660;5.824;2023-09-18T07:46:00;100281.28;;;20.21;100.00
61119;BME280;51448;51.660;5.824;2023-09-18T07:48:29;100257.38;;;20.20;100.00
61119;BME280;51448;51.660;5.824;2023-09-18T07:50:56;100260.03;;;20.20;100.00
61119;BME280;51448;51.660;5.824;2023-09-18T07:53:24;100267.09;;;20.21;100.00
61119;BME280;51448;51.660;5.824;2023-09-18T07:55:56;100263.44;;;20.22;100.00
61119;BME280;51448;51.660;5.824;2023-09-18T07:58:26;100272.34;;;20.22;100.00
61119;BME280;51448;51.660;5.824;2023-09-18T08:00:56;100263.34;;;20.23;100.00
61119;BME280;51448;51.660;5.824;2023-09-18T08:03:27;100268.31;;;20.28;100.00
61119;BME280;51448;51.660;5.824;2023-09-18T08:05:56;100266.25;;;20.32;100.00
61119;BME280;51448;51.660;5.824;2023-09-18T08:08:24;100265.16;;;20.34;100.00
61119;BME280;51448;51.660;5.824;2023-09-18T08:10:52;100274.78;;;20.37;100.00
61119;BME280;51448;51.660;5.824;2023-09-18T08:13:20;100256.81;;;20.39;100.00
61119;BME280;51448;51.660;5.824;2023-09-18T08:15:48;100258.38;;;20.41;100.00
61119;BME280;51448;51.660;5.824;2023-09-18T08:18:16;100272.22;;;20.46;100.00
61119;BME280;51448;51.660;5.824;2023-09-18T08:20:44;100276.34;;;20.50;100.00
61119;BME280;51448;51.660;5.824;2023-09-18T08:23:12;100274.41;;;20.53;100.00
61119;BME280;51448;51.660;5.824;2023-09-18T08:25:40;100279.53;;;20.56;100.00
61119;BME280;51448;51.660;5.824;2023-09-18T08:28:08;100281.22;;;20.57;100.00
61119;BME280;51448;51.660;5.824;2023-09-18T08:30:36;100267.75;;;20.58;100.00
61119;BME280;51448;51.660;5.824;2023-09-18T08:33:06;100282.81;;;20.70;100.00
61119;BME280;51448;51.660;5.824;2023-09-18T08:35:34;100282.34;;;20.77;100.00
61119;BME280;51448;51.660;5.824;2023-09-18T08:38:02;100290.97;;;20.80;100.00
61119;BME280;51448;51.660;5.824;2023-09-18T08:40:32;100285.50;;;20.82;100.00
61119;BME280;51448;51.660;5.824;2023-09-18T08:43:01;100296.19;;;20.82;100.00
61119;BME280;51448;51.660;5.824;2023-09-18T08:45:40;100304.34;;;20.80;100.00
61119;BME280;51448;51.660;5.824;2023-09-18T08:48:13;100302.63;;;20.79;100.00
61119;BME280;51448;51.660;5.824;2023-09-18T08:50:42;100304.34;;;20.80;100.00
61119;BME280;51448;51.660;5.824;2023-09-18T08:53:11;100300.66;;;20.81;100.00
61119;BME280;51448;51.660;5.824;2023-09-18T08:55:39;100308.56;;;20.83;100.00
61119;BME280;51448;51.660;5.824;2023-09-18T08:58:07;100302.84;;;20.87;100.00
61119;BME280;51448;51.660;5.824;2023-09-18T09:00:38;100306.53;;;20.86;100.00
61119;BME280;51448;51.660;5.824;2023-09-18T09:03:06;100313.81;;;20.84;100.00
61119;BME280;51448;51.660;5.824;2023-09-18T09:05:34;100315.50;;;20.85;100.00
61119;BME280;51448;51.660;5.824;2023-09-18T09:08:01;100314.28;;;20.89;100.00
61119;BME280;51448;51.660;5.824;2023-09-18T09:10:29;100314.28;;;20.89;100.00
61119;BME280;51448;51.660;5.824;2023-09-18T09:12:58;100305.66;;;20.97;100.00
61119;BME280;51448;51.660;5.824;2023-09-18T09:15:46;100308.09;;;21.00;100.00
61119;BME280;51448;51.660;5.824;2023-09-18T09:18:15;100311.63;;;21.01;100.00
61119;BME280;51448;51.660;5.824;2023-09-18T09:20:54;100305.28;;;21.13;100.00
61119;BME280;51448;51.660;5.824;2023-09-18T09:23:26;100310.97;;;21.31;100.00
61119;BME280;51448;51.660;5.824;2023-09-18T09:26:15;100300.97;;;21.56;100.00
61119;BME280;51448;51.660;5.824;2023-09-18T09:28:44;100299.44;;;21.74;100.00
61119;BME280;51448;51.660;5.824;2023-09-18T09:31:23;100292.66;;;21.91;100.00
61119;BME280;51448;51.660;5.824;2023-09-18T09:33:55;100310.97;;;22.07;100.00
61119;BME280;51448;51.660;5.824;2023-09-18T09:36:24;100301.88;;;22.19;100.00
61119;BME280;51448;51.660;5.824;2023-09-18T09:38:57;100300.88;;;22.32;100.00
61119;BME280;51448;51.660;5.824;2023-09-18T09:41:26;100306.13;;;22.43;100.00
61119;BME280;51448;51.660;5.824;2023-09-18T09:43:58;100304.34;;;22.53;100.00
61119;BME280;51448;51.660;5.824;2023-09-18T09:46:25;100307.09;;;22.63;100.00
61119;BME280;51448;51.660;5.824;2023-09-18T09:49:00;100315.03;;;22.74;100.00
61119;BME280;51448;51.660;5.824;2023-09-18T09:51:29;100317.75;;;22.84;100.00
61119;BME280;51448;51.660;5.824;2023-09-18T09:53:57;100309.63;;;22.95;99.21
61119;BME280;51448;51.660;5.824;2023-09-18T09:56:47;100316.16;;;23.02;99.15
61119;BME280;51448;51.660;5.824;2023-09-18T09:59:18;100314.56;;;23.00;99.35
61119;BME280;51448;51.660;5.824;2023-09-18T10:01:47;100319.94;;;23.00;98.28
61119;BME280;51448;51.660;5.824;2023-09-18T10:04:19;100336.94;;;23.10;97.32
61119;BME280;51448;51.660;5.824;2023-09-18T10:07:02;100327.22;;;23.19;97.14
61119;BME280;51448;51.660;5.824;2023-09-18T10:09:36;100336.13;;;23.19;96.60
61119;BME280;51448;51.660;5.824;2023-09-18T10:12:12;100336.44;;;23.26;96.01
61119;BME280;51448;51.660;5.824;2023-09-18T10:14:48;100335.72;;;23.34;95.16
61119;BME280;51448;51.660;5.824;2023-09-18T10:17:30;100343.06;;;23.32;96.37
61119;BME280;51448;51.660;5.824;2023-09-18T10:20:05;100349.16;;;23.34;94.82
61119;BME280;51448;51.660;5.824;2023-09-18T10:22:45;100363.53;;;23.23;93.25
61119;BME280;51448;51.660;5.824;2023-09-18T10:25:20;100365.06;;;23.16;93.76
61119;BME280;51448;51.660;5.824;2023-09-18T10:27:52;100367.59;;;23.17;93.33
61119;BME280;51448;51.660;5.824;2023-09-18T10:30:26;100368.84;;;23.13;91.59
61119;BME280;51448;51.660;5.824;2023-09-18T10:32:57;100372.22;;;23.05;93.15
61119;BME280;51448;51.660;5.824;2023-09-18T10:35:27;100372.78;;;23.09;92.36
61119;BME280;51448;51.660;5.824;2023-09-18T10:37:56;100372.41;;;23.14;92.65
61119;BME280;51448;51.660;5.824;2023-09-18T10:40:26;100372.25;;;23.15;92.82
61119;BME280;51448;51.660;5.824;2023-09-18T10:42:57;100370.56;;;23.14;92.75
61119;BME280;51448;51.660;5.824;2023-09-18T10:45:26;100359.97;;;23.13;92.92
61119;BME280;51448;51.660;5.824;2023-09-18T10:47:55;100352.50;;;23.16;93.04
61119;BME280;51448;51.660;5.824;2023-09-18T10:50:26;100354.75;;;23.21;92.64
61119;BME280;51448;51.660;5.824;2023-09-18T10:52:57;100345.78;;;23.41;92.93
61119;BME280;51448;51.660;5.824;2023-09-18T10:55:25;100354.28;;;23.56;92.65
61119;BME280;51448;51.660;5.824;2023-09-18T10:57:55;100354.31;;;23.76;91.39
61119;BME280;51448;51.660;5.824;2023-09-18T11:00:25;100343.75;;;23.84;91.56
61119;BME280;51448;51.660;5.824;2023-09-18T11:03:14;100344.75;;;24.02;89.45
61119;BME280;51448;51.660;5.824;2023-09-18T11:05:47;100340.47;;;24.09;89.85
61119;BME280;51448;51.660;5.824;2023-09-18T11:08:35;100334.72;;;24.04;88.69
61119;BME280;51448;51.660;5.824;2023-09-18T11:11:12;100330.31;;;24.03;88.95
61119;BME280;51448;51.660;5.824;2023-09-18T11:13:46;100332.03;;;24.14;89.17
61119;BME280;51448;51.660;5.824;2023-09-18T11:21:28;100325.84;;;24.61;89.09
61119;BME280;51448;51.660;5.824;2023-09-18T11:26:33;100330.59;;;24.86;85.61
61119;BME280;51448;51.660;5.824;2023-09-18T11:29:21;100345.56;;;24.89;84.30
61119;BME280;51448;51.660;5.824;2023-09-18T11:31:51;100345.47;;;24.81;82.53
61119;BME280;51448;51.660;5.824;2023-09-18T11:34:23;100361.94;;;24.68;82.97
61119;BME280;51448;51.660;5.824;2023-09-18T11:36:58;100361.50;;;24.63;83.24
61119;BME280;51448;51.660;5.824;2023-09-18T11:39:44;100356.84;;;24.45;84.18
61119;BME280;51448;51.660;5.824;2023-09-18T11:42:17;100355.91;;;24.27;83.92
61119;BME280;51448;51.660;5.824;2023-09-18T11:44:46;100353.66;;;24.13;84.29
61119;BME280;51448;51.660;5.824;2023-09-18T11:47:23;100359.44;;;23.98;84.82
61119;BME280;51448;51.660;5.824;2023-09-18T11:49:54;100361.53;;;23.85;85.01
61119;BME280;51448;51.660;5.824;2023-09-18T11:52:29;100359.94;;;23.73;85.50
61119;BME280;51448;51.660;5.824;2023-09-18T11:54:59;100361.06;;;23.60;86.53
61119;BME280;51448;51.660;5.824;2023-09-18T11:57:27;100356.53;;;23.51;86.00
61119;BME280;51448;51.660;5.824;2023-09-18T11:59:57;100350.72;;;23.36;85.92
61119;BME280;51448;51.660;5.824;2023-09-18T12:02:38;100352.22;;;23.19;87.17
61119;BME280;51448;51.660;5.824;2023-09-18T12:05:10;100353.75;;;23.12;87.93
61119;BME280;51448;51.660;5.824;2023-09-18T12:07:39;100345.19;;;23.28;87.70
61119;BME280;51448;51.660;5.824;2023-09-18T12:10:15;100337.88;;;23.49;87.93
61119;BME280;51448;51.660;5.824;2023-09-18T12:12:45;100351.19;;;23.70;85.38
61119;BME280;51448;51.660;5.824;2023-09-18T12:15:13;100354.38;;;23.85;85.48
61119;BME280;51448;51.660;5.824;2023-09-18T12:17:44;100345.00;;;23.99;85.87
61119;BME280;51448;51.660;5.824;2023-09-18T12:20:16;100348.84;;;24.16;84.25
61119;BME280;51448;51.660;5.824;2023-09-18T12:22:49;100345.16;;;24.27;84.21
61119;BME280;51448;51.660;5.824;2023-09-18T12:25:18;100338.19;;;24.34;84.08
61119;BME280;51448;51.660;5.824;2023-09-18T12:27:46;100331.28;;;24.32;82.37
61119;BME280;51448;51.660;5.824;2023-09-18T12:30:20;100330.69;;;24.28;81.27
61119;BME280;51448;51.660;5.824;2023-09-18T12:32:50;100321.78;;;24.37;81.83
61119;BME280;51448;51.660;5.824;2023-09-18T12:35:19;100329.41;;;24.42;82.38
61119;BME280;51448;51.660;5.824;2023-09-18T12:37:47;100319.78;;;24.59;82.46
61119;BME280;51448;51.660;5.824;2023-09-18T12:42:50;100319.41;;;24.81;81.79
61119;BME280;51448;51.660;5.824;2023-09-18T12:45:19;100305.97;;;24.81;79.72
61119;BME280;51448;51.660;5.824;2023-09-18T12:47:47;100303.72;;;24.77;78.71
61119;BME280;51448;51.660;5.824;2023-09-18T12:50:15;100311.09;;;24.75;78.27
61119;BME280;51448;51.660;5.824;2023-09-18T12:52:43;100303.59;;;24.78;77.49
61119;BME280;51448;51.660;5.824;2023-09-18T12:55:23;100304.16;;;24.82;76.69
61119;BME280;51448;51.660;5.824;2023-09-18T12:57:55;100294.50;;;24.79;77.93
61119;BME280;51448;51.660;5.824;2023-09-18T13:00:23;100303.00;;;24.84;77.83
61119;BME280;51448;51.660;5.824;2023-09-18T13:02:54;100304.50;;;24.97;76.60
61119;BME280;51448;51.660;5.824;2023-09-18T13:05:25;100298.06;;;25.07;76.44
61119;BME280;51448;51.660;5.824;2023-09-18T13:07:54;100291.78;;;25.17;76.26
61119;BME280;51448;51.660;5.824;2023-09-18T13:10:22;100285.00;;;25.13;75.24
61119;BME280;51448;51.660;5.824;2023-09-18T13:12:55;100286.53;;;25.25;73.67